Pagrindinis puslapis
METAR-TAF:

METAR-TAF

Oro uostai :

Gachsaran, Iranas

platuma: 30-26N, ilguma: 050-46E, Aukštis: 738 m

Dabartinis oras

Ataskaita buvo paskelbta 17 minutes, ne 22:00 UTC
Vėjas 8 kt iš Šiaurės Vakarų
Temperatūra 16°C
Drėgmė 88%
Slėgis 1021 hPa
Matomumas 10 km arba daugiau
Išsisklaidę debesys ne aukštis 4000 ft
Apsiniaukę ne aukštis 10000 ft

METAR: OIAH 022200Z 31008KT 9999 SCT040 OVC100 16/14 Q1021

Laikas: 01:47 (22:17 UTC)


TAF: trūkstamas

Orai ataskaitas ir orų prognozės (METAR, TAF).

turimą stotys yra geltonos ir raudonos taškus žemėlapyje.

Perkelti pele per norėdami pamatyti stoties vardą.

Tada spustelėkite, norėdami matyti oro stebėjimo ir prognozės.

Norėdami pakeisti žemėlapį: spustelėkite ant žalios mygtukų su juodo kryžiaus žemyn,; žalią mygtuką su brūkšneliu, jei norite nutolinti; arba žalių rodyklių gretimoms žemėlapius.


METAR-TAF: